sensor_id;sensor_type;location;lat;lon;timestamp;P1;durP1;ratioP1;P2;durP2;ratioP2
54919;SDS011;63804;53.120;8.764;2023-02-28T00:00:43;9.80;;;4.63;;
54919;SDS011;63804;53.120;8.764;2023-02-28T00:03:09;14.30;;;5.90;;
54919;SDS011;63804;53.120;8.764;2023-02-28T00:05:34;11.43;;;5.15;;
54919;SDS011;63804;53.120;8.764;2023-02-28T00:08:00;12.30;;;5.43;;
54919;SDS011;63804;53.120;8.764;2023-02-28T00:10:29;12.18;;;5.90;;
54919;SDS011;63804;53.120;8.764;2023-02-28T00:12:56;12.35;;;6.60;;
54919;SDS011;63804;53.120;8.764;2023-02-28T00:15:26;11.55;;;6.10;;
54919;SDS011;63804;53.120;8.764;2023-02-28T00:17:52;10.70;;;5.63;;
54919;SDS011;63804;53.120;8.764;2023-02-28T00:20:17;11.88;;;5.60;;
54919;SDS011;63804;53.120;8.764;2023-02-28T00:22:44;12.95;;;5.90;;
54919;SDS011;63804;53.120;8.764;2023-02-28T00:25:12;12.60;;;6.05;;
54919;SDS011;63804;53.120;8.764;2023-02-28T00:27:39;14.02;;;6.57;;
54919;SDS011;63804;53.120;8.764;2023-02-28T00:30:12;13.00;;;6.18;;
54919;SDS011;63804;53.120;8.764;2023-02-28T00:32:40;12.38;;;6.05;;
54919;SDS011;63804;53.120;8.764;2023-02-28T00:35:06;12.93;;;5.93;;
54919;SDS011;63804;53.120;8.764;2023-02-28T00:37:33;13.80;;;6.20;;
54919;SDS011;63804;53.120;8.764;2023-02-28T00:39:59;11.65;;;5.65;;
54919;SDS011;63804;53.120;8.764;2023-02-28T00:42:24;11.95;;;6.43;;
54919;SDS011;63804;53.120;8.764;2023-02-28T00:44:50;14.25;;;6.63;;
54919;SDS011;63804;53.120;8.764;2023-02-28T00:47:15;12.00;;;6.35;;
54919;SDS011;63804;53.120;8.764;2023-02-28T00:49:41;13.60;;;5.75;;
54919;SDS011;63804;53.120;8.764;2023-02-28T00:52:07;16.05;;;6.53;;
54919;SDS011;63804;53.120;8.764;2023-02-28T00:54:32;12.05;;;5.60;;
54919;SDS011;63804;53.120;8.764;2023-02-28T00:56:58;13.77;;;6.25;;
54919;SDS011;63804;53.120;8.764;2023-02-28T00:59:24;12.73;;;6.00;;
54919;SDS011;63804;53.120;8.764;2023-02-28T01:01:50;14.55;;;7.07;;
54919;SDS011;63804;53.120;8.764;2023-02-28T01:04:16;12.50;;;6.05;;
54919;SDS011;63804;53.120;8.764;2023-02-28T01:06:42;13.40;;;5.70;;
54919;SDS011;63804;53.120;8.764;2023-02-28T01:09:07;10.80;;;5.53;;
54919;SDS011;63804;53.120;8.764;2023-02-28T01:11:34;13.07;;;6.13;;
54919;SDS011;63804;53.120;8.764;2023-02-28T01:14:03;15.43;;;5.75;;
54919;SDS011;63804;53.120;8.764;2023-02-28T01:16:29;12.35;;;6.03;;
54919;SDS011;63804;53.120;8.764;2023-02-28T01:18:55;13.00;;;6.55;;
54919;SDS011;63804;53.120;8.764;2023-02-28T01:21:22;15.23;;;5.57;;
54919;SDS011;63804;53.120;8.764;2023-02-28T01:23:49;13.35;;;6.20;;
54919;SDS011;63804;53.120;8.764;2023-02-28T01:26:17;11.57;;;6.10;;
54919;SDS011;63804;53.120;8.764;2023-02-28T01:28:44;12.75;;;5.95;;
54919;SDS011;63804;53.120;8.764;2023-02-28T01:31:10;13.20;;;5.45;;
54919;SDS011;63804;53.120;8.764;2023-02-28T01:33:37;10.73;;;4.72;;
54919;SDS011;63804;53.120;8.764;2023-02-28T01:36:05;14.60;;;6.38;;
54919;SDS011;63804;53.120;8.764;2023-02-28T01:38:41;11.20;;;5.30;;
54919;SDS011;63804;53.120;8.764;2023-02-28T01:41:07;13.50;;;5.45;;
54919;SDS011;63804;53.120;8.764;2023-02-28T01:46:07;16.02;;;5.55;;
54919;SDS011;63804;53.120;8.764;2023-02-28T01:48:33;14.70;;;6.38;;
54919;SDS011;63804;53.120;8.764;2023-02-28T01:51:12;12.48;;;5.40;;
54919;SDS011;63804;53.120;8.764;2023-02-28T01:53:44;13.05;;;6.07;;
54919;SDS011;63804;53.120;8.764;2023-02-28T01:56:13;12.00;;;6.00;;
54919;SDS011;63804;53.120;8.764;2023-02-28T01:58:46;11.77;;;5.97;;
54919;SDS011;63804;53.120;8.764;2023-02-28T02:01:16;11.18;;;5.40;;
54919;SDS011;63804;53.120;8.764;2023-02-28T02:03:50;11.70;;;5.28;;
54919;SDS011;63804;53.120;8.764;2023-02-28T02:06:22;11.25;;;5.68;;
54919;SDS011;63804;53.120;8.764;2023-02-28T02:08:50;12.15;;;5.43;;
54919;SDS011;63804;53.120;8.764;2023-02-28T02:11:17;12.48;;;5.05;;
54919;SDS011;63804;53.120;8.764;2023-02-28T02:14:10;12.23;;;4.82;;
54919;SDS011;63804;53.120;8.764;2023-02-28T02:31:12;11.68;;;5.20;;
54919;SDS011;63804;53.120;8.764;2023-02-28T02:36:47;9.80;;;5.10;;
54919;SDS011;63804;53.120;8.764;2023-02-28T02:39:29;12.88;;;6.55;;
54919;SDS011;63804;53.120;8.764;2023-02-28T02:42:00;15.45;;;7.18;;
54919;SDS011;63804;53.120;8.764;2023-02-28T02:44:36;13.93;;;6.10;;
54919;SDS011;63804;53.120;8.764;2023-02-28T02:47:06;15.38;;;6.95;;
54919;SDS011;63804;53.120;8.764;2023-02-28T02:49:35;17.00;;;8.50;;
54919;SDS011;63804;53.120;8.764;2023-02-28T02:52:03;15.52;;;7.05;;
54919;SDS011;63804;53.120;8.764;2023-02-28T02:54:35;16.23;;;6.85;;
54919;SDS011;63804;53.120;8.764;2023-02-28T02:57:04;15.00;;;6.70;;
54919;SDS011;63804;53.120;8.764;2023-02-28T02:59:33;16.10;;;7.43;;
54919;SDS011;63804;53.120;8.764;2023-02-28T03:02:03;16.08;;;8.32;;
54919;SDS011;63804;53.120;8.764;2023-02-28T03:04:32;14.27;;;7.00;;
54919;SDS011;63804;53.120;8.764;2023-02-28T03:07:02;13.82;;;6.72;;
54919;SDS011;63804;53.120;8.764;2023-02-28T03:09:28;14.50;;;7.10;;
54919;SDS011;63804;53.120;8.764;2023-02-28T03:11:54;14.57;;;6.55;;
54919;SDS011;63804;53.120;8.764;2023-02-28T03:17:12;15.10;;;7.38;;
54919;SDS011;63804;53.120;8.764;2023-02-28T03:19:55;14.55;;;7.75;;
54919;SDS011;63804;53.120;8.764;2023-02-28T03:25:07;14.35;;;7.90;;
54919;SDS011;63804;53.120;8.764;2023-02-28T03:27:40;14.80;;;7.55;;
54919;SDS011;63804;53.120;8.764;2023-02-28T03:35:31;13.35;;;7.20;;
54919;SDS011;63804;53.120;8.764;2023-02-28T03:38:07;13.27;;;6.45;;
54919;SDS011;63804;53.120;8.764;2023-02-28T03:40:39;12.63;;;6.18;;
54919;SDS011;63804;53.120;8.764;2023-02-28T03:43:12;10.02;;;5.15;;
54919;SDS011;63804;53.120;8.764;2023-02-28T03:45:43;11.93;;;4.95;;
54919;SDS011;63804;53.120;8.764;2023-02-28T03:48:15;10.70;;;4.78;;
54919;SDS011;63804;53.120;8.764;2023-02-28T03:50:47;9.82;;;4.30;;
54919;SDS011;63804;53.120;8.764;2023-02-28T03:53:35;9.15;;;4.50;;
54919;SDS011;63804;53.120;8.764;2023-02-28T03:58:41;11.13;;;5.00;;
54919;SDS011;63804;53.120;8.764;2023-02-28T04:01:15;13.43;;;4.65;;
54919;SDS011;63804;53.120;8.764;2023-02-28T04:03:46;9.73;;;4.38;;
54919;SDS011;63804;53.120;8.764;2023-02-28T04:06:15;10.75;;;4.35;;
54919;SDS011;63804;53.120;8.764;2023-02-28T04:08:43;11.57;;;4.68;;
54919;SDS011;63804;53.120;8.764;2023-02-28T04:11:27;12.70;;;5.00;;
54919;SDS011;63804;53.120;8.764;2023-02-28T04:13:55;9.68;;;4.38;;
54919;SDS011;63804;53.120;8.764;2023-02-28T04:16:21;9.90;;;4.30;;
54919;SDS011;63804;53.120;8.764;2023-02-28T04:18:46;11.43;;;4.45;;
54919;SDS011;63804;53.120;8.764;2023-02-28T04:21:12;9.10;;;4.47;;
54919;SDS011;63804;53.120;8.764;2023-02-28T04:23:37;10.05;;;3.88;;
54919;SDS011;63804;53.120;8.764;2023-02-28T04:26:03;9.73;;;4.70;;
54919;SDS011;63804;53.120;8.764;2023-02-28T04:28:29;9.82;;;4.40;;
54919;SDS011;63804;53.120;8.764;2023-02-28T04:30:58;9.93;;;3.85;;
54919;SDS011;63804;53.120;8.764;2023-02-28T04:33:26;10.13;;;4.80;;
54919;SDS011;63804;53.120;8.764;2023-02-28T04:35:58;10.77;;;4.35;;
54919;SDS011;63804;53.120;8.764;2023-02-28T04:38:28;9.32;;;4.03;;
54919;SDS011;63804;53.120;8.764;2023-02-28T04:40:56;11.93;;;4.53;;
54919;SDS011;63804;53.120;8.764;2023-02-28T04:43:22;11.23;;;4.80;;
54919;SDS011;63804;53.120;8.764;2023-02-28T04:45:47;11.82;;;4.60;;
54919;SDS011;63804;53.120;8.764;2023-02-28T04:48:13;9.07;;;3.92;;
54919;SDS011;63804;53.120;8.764;2023-02-28T04:50:38;9.00;;;4.28;;
54919;SDS011;63804;53.120;8.764;2023-02-28T04:53:03;8.68;;;4.00;;
54919;SDS011;63804;53.120;8.764;2023-02-28T04:55:29;8.60;;;3.83;;
54919;SDS011;63804;53.120;8.764;2023-02-28T04:57:57;10.65;;;3.97;;
54919;SDS011;63804;53.120;8.764;2023-02-28T05:00:23;7.88;;;3.80;;
54919;SDS011;63804;53.120;8.764;2023-02-28T05:02:48;8.63;;;4.13;;
54919;SDS011;63804;53.120;8.764;2023-02-28T05:05:14;10.55;;;3.90;;
54919;SDS011;63804;53.120;8.764;2023-02-28T05:07:43;8.13;;;3.85;;
54919;SDS011;63804;53.120;8.764;2023-02-28T05:10:09;8.20;;;3.45;;
54919;SDS011;63804;53.120;8.764;2023-02-28T05:12:35;11.02;;;3.40;;
54919;SDS011;63804;53.120;8.764;2023-02-28T05:15:01;8.80;;;3.28;;
54919;SDS011;63804;53.120;8.764;2023-02-28T05:17:27;7.32;;;3.50;;
54919;SDS011;63804;53.120;8.764;2023-02-28T05:19:53;9.40;;;3.70;;
54919;SDS011;63804;53.120;8.764;2023-02-28T05:22:18;9.90;;;3.30;;
54919;SDS011;63804;53.120;8.764;2023-02-28T05:24:44;8.65;;;3.30;;
54919;SDS011;63804;53.120;8.764;2023-02-28T05:27:10;8.75;;;3.30;;
54919;SDS011;63804;53.120;8.764;2023-02-28T05:29:35;9.60;;;3.38;;
54919;SDS011;63804;53.120;8.764;2023-02-28T05:32:08;8.90;;;3.53;;
54919;SDS011;63804;53.120;8.764;2023-02-28T05:34:35;10.82;;;3.17;;
54919;SDS011;63804;53.120;8.764;2023-02-28T05:37:01;8.45;;;3.70;;
54919;SDS011;63804;53.120;8.764;2023-02-28T05:39:27;7.05;;;3.80;;
54919;SDS011;63804;53.120;8.764;2023-02-28T05:41:52;9.23;;;3.50;;
54919;SDS011;63804;53.120;8.764;2023-02-28T05:44:18;9.38;;;3.60;;
54919;SDS011;63804;53.120;8.764;2023-02-28T05:46:43;6.97;;;2.95;;
54919;SDS011;63804;53.120;8.764;2023-02-28T05:49:09;9.88;;;3.72;;
54919;SDS011;63804;53.120;8.764;2023-02-28T05:51:34;10.80;;;3.80;;
54919;SDS011;63804;53.120;8.764;2023-02-28T05:54:01;8.65;;;3.63;;
54919;SDS011;63804;53.120;8.764;2023-02-28T05:56:27;15.65;;;4.60;;
54919;SDS011;63804;53.120;8.764;2023-02-28T05:58:53;9.45;;;4.18;;
54919;SDS011;63804;53.120;8.764;2023-02-28T06:01:30;10.95;;;3.72;;
54919;SDS011;63804;53.120;8.764;2023-02-28T06:03:56;9.35;;;3.90;;
54919;SDS011;63804;53.120;8.764;2023-02-28T06:06:21;11.10;;;4.43;;
54919;SDS011;63804;53.120;8.764;2023-02-28T06:08:47;8.70;;;4.05;;
54919;SDS011;63804;53.120;8.764;2023-02-28T06:11:13;10.32;;;4.13;;
54919;SDS011;63804;53.120;8.764;2023-02-28T06:13:38;10.13;;;4.53;;
54919;SDS011;63804;53.120;8.764;2023-02-28T06:16:04;8.43;;;4.18;;
54919;SDS011;63804;53.120;8.764;2023-02-28T06:18:30;10.73;;;4.40;;
54919;SDS011;63804;53.120;8.764;2023-02-28T06:20:56;11.20;;;4.05;;
54919;SDS011;63804;53.120;8.764;2023-02-28T06:23:22;7.53;;;4.18;;
54919;SDS011;63804;53.120;8.764;2023-02-28T06:25:47;9.90;;;4.53;;
54919;SDS011;63804;53.120;8.764;2023-02-28T06:28:14;9.13;;;4.38;;
54919;SDS011;63804;53.120;8.764;2023-02-28T06:30:40;11.57;;;4.78;;
54919;SDS011;63804;53.120;8.764;2023-02-28T06:33:05;12.50;;;4.85;;
54919;SDS011;63804;53.120;8.764;2023-02-28T06:35:31;13.70;;;4.95;;
54919;SDS011;63804;53.120;8.764;2023-02-28T06:37:57;16.10;;;6.22;;
54919;SDS011;63804;53.120;8.764;2023-02-28T06:40:22;12.63;;;5.50;;
54919;SDS011;63804;53.120;8.764;2023-02-28T06:42:48;11.70;;;5.88;;
54919;SDS011;63804;53.120;8.764;2023-02-28T06:45:14;12.60;;;5.57;;
54919;SDS011;63804;53.120;8.764;2023-02-28T06:47:40;11.35;;;4.93;;
54919;SDS011;63804;53.120;8.764;2023-02-28T06:50:09;11.45;;;5.72;;
54919;SDS011;63804;53.120;8.764;2023-02-28T06:52:36;14.07;;;5.53;;
54919;SDS011;63804;53.120;8.764;2023-02-28T06:55:03;13.23;;;6.20;;
54919;SDS011;63804;53.120;8.764;2023-02-28T06:57:30;12.85;;;5.68;;
54919;SDS011;63804;53.120;8.764;2023-02-28T06:59:58;14.73;;;6.03;;
54919;SDS011;63804;53.120;8.764;2023-02-28T07:02:24;13.02;;;6.53;;
54919;SDS011;63804;53.120;8.764;2023-02-28T07:04:51;13.75;;;6.07;;
54919;SDS011;63804;53.120;8.764;2023-02-28T07:07:16;14.35;;;6.40;;
54919;SDS011;63804;53.120;8.764;2023-02-28T07:09:41;15.27;;;6.53;;
54919;SDS011;63804;53.120;8.764;2023-02-28T07:12:07;13.82;;;4.95;;
54919;SDS011;63804;53.120;8.764;2023-02-28T07:14:32;11.15;;;4.47;;
54919;SDS011;63804;53.120;8.764;2023-02-28T07:16:58;12.55;;;4.40;;
54919;SDS011;63804;53.120;8.764;2023-02-28T07:19:24;12.80;;;6.22;;
54919;SDS011;63804;53.120;8.764;2023-02-28T07:21:49;12.70;;;5.30;;
54919;SDS011;63804;53.120;8.764;2023-02-28T07:24:15;16.98;;;4.63;;
54919;SDS011;63804;53.120;8.764;2023-02-28T07:26:42;12.50;;;5.35;;
54919;SDS011;63804;53.120;8.764;2023-02-28T07:29:08;13.75;;;4.85;;
54919;SDS011;63804;53.120;8.764;2023-02-28T07:31:34;10.20;;;3.97;;
54919;SDS011;63804;53.120;8.764;2023-02-28T07:33:59;9.77;;;4.15;;
54919;SDS011;63804;53.120;8.764;2023-02-28T07:36:25;15.43;;;4.47;;
54919;SDS011;63804;53.120;8.764;2023-02-28T07:38:50;11.25;;;4.32;;
54919;SDS011;63804;53.120;8.764;2023-02-28T07:41:16;13.73;;;4.60;;
54919;SDS011;63804;53.120;8.764;2023-02-28T07:43:44;13.85;;;4.65;;
54919;SDS011;63804;53.120;8.764;2023-02-28T07:46:10;12.82;;;4.45;;
54919;SDS011;63804;53.120;8.764;2023-02-28T07:48:40;11.07;;;4.05;;
54919;SDS011;63804;53.120;8.764;2023-02-28T07:51:05;13.82;;;4.32;;
54919;SDS011;63804;53.120;8.764;2023-02-28T07:53:31;11.80;;;4.82;;
54919;SDS011;63804;53.120;8.764;2023-02-28T07:55:57;13.45;;;4.55;;
54919;SDS011;63804;53.120;8.764;2023-02-28T07:58:24;9.77;;;4.28;;
54919;SDS011;63804;53.120;8.764;2023-02-28T08:00:50;14.95;;;4.70;;
54919;SDS011;63804;53.120;8.764;2023-02-28T08:03:16;9.35;;;4.20;;
54919;SDS011;63804;53.120;8.764;2023-02-28T08:05:43;13.95;;;4.50;;
54919;SDS011;63804;53.120;8.764;2023-02-28T08:08:08;13.13;;;4.53;;
54919;SDS011;63804;53.120;8.764;2023-02-28T08:10:34;11.98;;;4.35;;
54919;SDS011;63804;53.120;8.764;2023-02-28T08:12:59;10.95;;;4.20;;
54919;SDS011;63804;53.120;8.764;2023-02-28T08:15:25;10.38;;;3.72;;
54919;SDS011;63804;53.120;8.764;2023-02-28T08:17:51;10.13;;;4.25;;
54919;SDS011;63804;53.120;8.764;2023-02-28T08:20:16;10.88;;;4.18;;
54919;SDS011;63804;53.120;8.764;2023-02-28T08:22:42;7.80;;;3.72;;
54919;SDS011;63804;53.120;8.764;2023-02-28T08:25:07;7.95;;;3.50;;
54919;SDS011;63804;53.120;8.764;2023-02-28T08:27:34;10.27;;;3.88;;
54919;SDS011;63804;53.120;8.764;2023-02-28T08:30:00;11.35;;;3.63;;
54919;SDS011;63804;53.120;8.764;2023-02-28T08:32:25;10.93;;;3.65;;
54919;SDS011;63804;53.120;8.764;2023-02-28T08:34:51;9.35;;;3.67;;
54919;SDS011;63804;53.120;8.764;2023-02-28T08:37:16;10.80;;;3.90;;
54919;SDS011;63804;53.120;8.764;2023-02-28T08:39:42;8.27;;;3.63;;
54919;SDS011;63804;53.120;8.764;2023-02-28T08:42:07;6.75;;;3.10;;
54919;SDS011;63804;53.120;8.764;2023-02-28T08:44:33;9.35;;;3.50;;
54919;SDS011;63804;53.120;8.764;2023-02-28T08:46:58;8.38;;;3.55;;
54919;SDS011;63804;53.120;8.764;2023-02-28T08:49:23;8.18;;;3.40;;
54919;SDS011;63804;53.120;8.764;2023-02-28T08:51:49;9.63;;;3.10;;
54919;SDS011;63804;53.120;8.764;2023-02-28T08:54:14;8.05;;;3.00;;
54919;SDS011;63804;53.120;8.764;2023-02-28T08:56:44;6.68;;;2.90;;
54919;SDS011;63804;53.120;8.764;2023-02-28T08:59:12;7.47;;;2.80;;
54919;SDS011;63804;53.120;8.764;2023-02-28T09:01:38;7.20;;;2.80;;
54919;SDS011;63804;53.120;8.764;2023-02-28T09:04:03;7.57;;;2.45;;
54919;SDS011;63804;53.120;8.764;2023-02-28T09:06:29;5.78;;;2.60;;
54919;SDS011;63804;53.120;8.764;2023-02-28T09:08:57;7.85;;;2.65;;
54919;SDS011;63804;53.120;8.764;2023-02-28T09:11:24;7.93;;;3.00;;
54919;SDS011;63804;53.120;8.764;2023-02-28T09:13:57;6.65;;;2.95;;
54919;SDS011;63804;53.120;8.764;2023-02-28T09:16:24;8.48;;;2.80;;
54919;SDS011;63804;53.120;8.764;2023-02-28T09:18:49;6.32;;;2.88;;
54919;SDS011;63804;53.120;8.764;2023-02-28T09:21:16;6.85;;;2.63;;
54919;SDS011;63804;53.120;8.764;2023-02-28T09:23:43;7.15;;;2.70;;
54919;SDS011;63804;53.120;8.764;2023-02-28T09:26:19;5.82;;;2.65;;
54919;SDS011;63804;53.120;8.764;2023-02-28T09:28:47;8.57;;;2.63;;
54919;SDS011;63804;53.120;8.764;2023-02-28T09:31:13;8.85;;;2.50;;
54919;SDS011;63804;53.120;8.764;2023-02-28T09:33:41;6.97;;;2.80;;
54919;SDS011;63804;53.120;8.764;2023-02-28T09:36:07;6.55;;;2.30;;
54919;SDS011;63804;53.120;8.764;2023-02-28T09:38:33;7.30;;;2.40;;
54919;SDS011;63804;53.120;8.764;2023-02-28T09:41:04;7.30;;;2.30;;
54919;SDS011;63804;53.120;8.764;2023-02-28T09:43:38;7.75;;;2.60;;
54919;SDS011;63804;53.120;8.764;2023-02-28T09:46:11;3.60;;;1.63;;
54919;SDS011;63804;53.120;8.764;2023-02-28T09:48:44;6.00;;;1.90;;
54919;SDS011;63804;53.120;8.764;2023-02-28T09:51:30;6.57;;;1.90;;
54919;SDS011;63804;53.120;8.764;2023-02-28T09:54:02;5.07;;;2.35;;
54919;SDS011;63804;53.120;8.764;2023-02-28T09:56:39;8.00;;;2.00;;
54919;SDS011;63804;53.120;8.764;2023-02-28T10:06:51;4.18;;;1.42;;
54919;SDS011;63804;53.120;8.764;2023-02-28T10:09:19;7.57;;;1.80;;
54919;SDS011;63804;53.120;8.764;2023-02-28T10:11:50;3.05;;;1.38;;
54919;SDS011;63804;53.120;8.764;2023-02-28T10:14:19;4.15;;;1.42;;
54919;SDS011;63804;53.120;8.764;2023-02-28T10:16:48;4.88;;;1.42;;
54919;SDS011;63804;53.120;8.764;2023-02-28T10:22:11;5.18;;;1.60;;
54919;SDS011;63804;53.120;8.764;2023-02-28T10:24:44;4.55;;;1.65;;
54919;SDS011;63804;53.120;8.764;2023-02-28T10:27:18;3.38;;;1.70;;
54919;SDS011;63804;53.120;8.764;2023-02-28T10:29:52;5.80;;;1.73;;
54919;SDS011;63804;53.120;8.764;2023-02-28T10:32:20;4.38;;;1.75;;
54919;SDS011;63804;53.120;8.764;2023-02-28T10:37:43;6.60;;;1.40;;
54919;SDS011;63804;53.120;8.764;2023-02-28T10:43:03;4.90;;;1.90;;
54919;SDS011;63804;53.120;8.764;2023-02-28T10:45:31;3.38;;;1.50;;
54919;SDS011;63804;53.120;8.764;2023-02-28T10:48:03;6.85;;;1.90;;
54919;SDS011;63804;53.120;8.764;2023-02-28T10:50:44;5.07;;;1.52;;
54919;SDS011;63804;53.120;8.764;2023-02-28T11:03:54;4.25;;;1.60;;
54919;SDS011;63804;53.120;8.764;2023-02-28T11:06:26;4.43;;;1.63;;
54919;SDS011;63804;53.120;8.764;2023-02-28T11:08:55;4.47;;;1.67;;
54919;SDS011;63804;53.120;8.764;2023-02-28T11:11:24;6.35;;;1.48;;
54919;SDS011;63804;53.120;8.764;2023-02-28T11:13:52;6.30;;;1.70;;
54919;SDS011;63804;53.120;8.764;2023-02-28T11:16:20;4.45;;;1.70;;
54919;SDS011;63804;53.120;8.764;2023-02-28T11:18:55;4.53;;;1.50;;
54919;SDS011;63804;53.120;8.764;2023-02-28T11:21:22;4.30;;;1.65;;
54919;SDS011;63804;53.120;8.764;2023-02-28T11:23:52;4.97;;;1.40;;
54919;SDS011;63804;53.120;8.764;2023-02-28T11:26:38;5.32;;;1.92;;
54919;SDS011;63804;53.120;8.764;2023-02-28T11:29:20;3.88;;;1.33;;
54919;SDS011;63804;53.120;8.764;2023-02-28T11:32:00;3.55;;;1.40;;
54919;SDS011;63804;53.120;8.764;2023-02-28T11:34:36;3.63;;;1.60;;
54919;SDS011;63804;53.120;8.764;2023-02-28T11:37:03;3.03;;;1.20;;
54919;SDS011;63804;53.120;8.764;2023-02-28T11:39:34;3.95;;;1.55;;
54919;SDS011;63804;53.120;8.764;2023-02-28T11:44:50;5.00;;;1.70;;
54919;SDS011;63804;53.120;8.764;2023-02-28T11:47:56;3.95;;;1.52;;
54919;SDS011;63804;53.120;8.764;2023-02-28T11:50:37;4.30;;;1.40;;
54919;SDS011;63804;53.120;8.764;2023-02-28T11:53:17;2.53;;;1.27;;
54919;SDS011;63804;53.120;8.764;2023-02-28T11:55:51;3.28;;;1.00;;
54919;SDS011;63804;53.120;8.764;2023-02-28T11:58:48;3.33;;;1.33;;
54919;SDS011;63804;53.120;8.764;2023-02-28T12:01:15;3.63;;;1.50;;
54919;SDS011;63804;53.120;8.764;2023-02-28T12:07:00;3.42;;;1.35;;
54919;SDS011;63804;53.120;8.764;2023-02-28T12:15:30;4.78;;;1.40;;
54919;SDS011;63804;53.120;8.764;2023-02-28T12:18:06;4.90;;;1.60;;
54919;SDS011;63804;53.120;8.764;2023-02-28T12:26:27;3.80;;;1.40;;
54919;SDS011;63804;53.120;8.764;2023-02-28T12:29:04;4.70;;;1.52;;
54919;SDS011;63804;53.120;8.764;2023-02-28T12:31:35;4.15;;;1.52;;
54919;SDS011;63804;53.120;8.764;2023-02-28T12:34:05;4.15;;;1.75;;
54919;SDS011;63804;53.120;8.764;2023-02-28T12:36:35;3.92;;;1.92;;
54919;SDS011;63804;53.120;8.764;2023-02-28T12:39:10;4.38;;;1.80;;
54919;SDS011;63804;53.120;8.764;2023-02-28T12:44:09;6.68;;;2.00;;
54919;SDS011;63804;53.120;8.764;2023-02-28T12:46:44;4.20;;;1.88;;
54919;SDS011;63804;53.120;8.764;2023-02-28T12:49:27;4.70;;;1.83;;
54919;SDS011;63804;53.120;8.764;2023-02-28T12:51:59;4.10;;;2.03;;
54919;SDS011;63804;53.120;8.764;2023-02-28T12:57:12;4.28;;;1.67;;
54919;SDS011;63804;53.120;8.764;2023-02-28T13:04:57;4.43;;;1.67;;
54919;SDS011;63804;53.120;8.764;2023-02-28T13:10:18;3.25;;;1.73;;
54919;SDS011;63804;53.120;8.764;2023-02-28T13:12:50;4.40;;;1.75;;
54919;SDS011;63804;53.120;8.764;2023-02-28T13:15:25;3.67;;;1.70;;
54919;SDS011;63804;53.120;8.764;2023-02-28T13:17:55;5.10;;;1.70;;
54919;SDS011;63804;53.120;8.764;2023-02-28T13:20:24;3.70;;;1.42;;
54919;SDS011;63804;53.120;8.764;2023-02-28T13:22:52;4.90;;;1.92;;
54919;SDS011;63804;53.120;8.764;2023-02-28T13:27:47;4.25;;;1.70;;
54919;SDS011;63804;53.120;8.764;2023-02-28T13:35:59;4.80;;;1.70;;
54919;SDS011;63804;53.120;8.764;2023-02-28T13:38:48;4.82;;;1.55;;
54919;SDS011;63804;53.120;8.764;2023-02-28T13:58:10;4.10;;;1.70;;
54919;SDS011;63804;53.120;8.764;2023-02-28T14:00:35;4.50;;;1.52;;
54919;SDS011;63804;53.120;8.764;2023-02-28T14:05:33;4.85;;;1.55;;
54919;SDS011;63804;53.120;8.764;2023-02-28T14:08:07;3.20;;;1.60;;
54919;SDS011;63804;53.120;8.764;2023-02-28T14:10:41;4.15;;;1.50;;
54919;SDS011;63804;53.120;8.764;2023-02-28T14:16:11;5.68;;;1.58;;
54919;SDS011;63804;53.120;8.764;2023-02-28T14:18:47;4.18;;;2.00;;
54919;SDS011;63804;53.120;8.764;2023-02-28T14:27:03;4.53;;;1.50;;
54919;SDS011;63804;53.120;8.764;2023-02-28T14:35:12;6.18;;;1.95;;
54919;SDS011;63804;53.120;8.764;2023-02-28T14:37:50;5.75;;;1.55;;
54919;SDS011;63804;53.120;8.764;2023-02-28T14:40:26;4.43;;;1.67;;
54919;SDS011;63804;53.120;8.764;2023-02-28T14:42:56;4.93;;;1.80;;
54919;SDS011;63804;53.120;8.764;2023-02-28T14:45:27;2.67;;;1.23;;
54919;SDS011;63804;53.120;8.764;2023-02-28T14:47:55;3.88;;;1.70;;
54919;SDS011;63804;53.120;8.764;2023-02-28T14:50:41;4.10;;;1.60;;
54919;SDS011;63804;53.120;8.764;2023-02-28T14:53:17;2.92;;;1.52;;
54919;SDS011;63804;53.120;8.764;2023-02-28T14:55:45;4.78;;;1.70;;
54919;SDS011;63804;53.120;8.764;2023-02-28T14:58:22;5.25;;;1.85;;
54919;SDS011;63804;53.120;8.764;2023-02-28T15:00:51;4.25;;;1.80;;
54919;SDS011;63804;53.120;8.764;2023-02-28T15:03:23;3.60;;;1.70;;
54919;SDS011;63804;53.120;8.764;2023-02-28T15:05:55;5.07;;;1.75;;
54919;SDS011;63804;53.120;8.764;2023-02-28T15:08:23;4.55;;;1.40;;
54919;SDS011;63804;53.120;8.764;2023-02-28T15:13:29;2.55;;;1.30;;
54919;SDS011;63804;53.120;8.764;2023-02-28T15:16:01;5.57;;;1.83;;
54919;SDS011;63804;53.120;8.764;2023-02-28T15:21:06;3.95;;;1.65;;
54919;SDS011;63804;53.120;8.764;2023-02-28T15:23:36;3.08;;;1.50;;
54919;SDS011;63804;53.120;8.764;2023-02-28T15:26:03;3.47;;;1.30;;
54919;SDS011;63804;53.120;8.764;2023-02-28T15:28:29;3.92;;;1.52;;
54919;SDS011;63804;53.120;8.764;2023-02-28T15:30:59;4.03;;;1.70;;
54919;SDS011;63804;53.120;8.764;2023-02-28T15:33:33;3.13;;;1.45;;
54919;SDS011;63804;53.120;8.764;2023-02-28T15:36:33;4.15;;;1.48;;
54919;SDS011;63804;53.120;8.764;2023-02-28T15:38:53;4.80;;;1.60;;
54919;SDS011;63804;53.120;8.764;2023-02-28T15:41:26;5.63;;;1.75;;
54919;SDS011;63804;53.120;8.764;2023-02-28T15:46:37;4.65;;;1.40;;
54919;SDS011;63804;53.120;8.764;2023-02-28T15:49:03;2.88;;;1.40;;
54919;SDS011;63804;53.120;8.764;2023-02-28T15:54:04;2.33;;;1.15;;
54919;SDS011;63804;53.120;8.764;2023-02-28T15:56:34;2.83;;;1.40;;
54919;SDS011;63804;53.120;8.764;2023-02-28T15:59:07;3.45;;;1.50;;
54919;SDS011;63804;53.120;8.764;2023-02-28T16:01:42;4.03;;;1.63;;
54919;SDS011;63804;53.120;8.764;2023-02-28T16:04:13;3.53;;;1.40;;
54919;SDS011;63804;53.120;8.764;2023-02-28T16:09:25;6.35;;;1.65;;
54919;SDS011;63804;53.120;8.764;2023-02-28T16:11:53;4.82;;;1.65;;
54919;SDS011;63804;53.120;8.764;2023-02-28T16:14:22;6.38;;;2.97;;
54919;SDS011;63804;53.120;8.764;2023-02-28T16:16:54;5.15;;;2.00;;
54919;SDS011;63804;53.120;8.764;2023-02-28T16:19:21;5.13;;;2.08;;
54919;SDS011;63804;53.120;8.764;2023-02-28T16:21:47;7.00;;;2.50;;
54919;SDS011;63804;53.120;8.764;2023-02-28T16:26:46;3.72;;;1.85;;
54919;SDS011;63804;53.120;8.764;2023-02-28T16:29:38;5.68;;;1.73;;
54919;SDS011;63804;53.120;8.764;2023-02-28T16:32:29;4.60;;;1.83;;
54919;SDS011;63804;53.120;8.764;2023-02-28T16:35:16;3.92;;;1.70;;
54919;SDS011;63804;53.120;8.764;2023-02-28T16:38:01;4.05;;;1.70;;
54919;SDS011;63804;53.120;8.764;2023-02-28T16:40:45;3.67;;;1.58;;
54919;SDS011;63804;53.120;8.764;2023-02-28T16:43:29;5.90;;;1.70;;
54919;SDS011;63804;53.120;8.764;2023-02-28T16:46:14;4.57;;;1.80;;
54919;SDS011;63804;53.120;8.764;2023-02-28T16:48:58;4.03;;;1.45;;
54919;SDS011;63804;53.120;8.764;2023-02-28T16:51:42;4.47;;;1.80;;
54919;SDS011;63804;53.120;8.764;2023-02-28T16:54:26;4.00;;;1.58;;
54919;SDS011;63804;53.120;8.764;2023-02-28T16:57:20;4.20;;;1.50;;
54919;SDS011;63804;53.120;8.764;2023-02-28T17:00:07;4.85;;;1.80;;
54919;SDS011;63804;53.120;8.764;2023-02-28T17:02:55;4.47;;;1.60;;
54919;SDS011;63804;53.120;8.764;2023-02-28T17:05:39;4.85;;;1.90;;
54919;SDS011;63804;53.120;8.764;2023-02-28T17:08:05;4.18;;;1.90;;
54919;SDS011;63804;53.120;8.764;2023-02-28T17:10:30;3.83;;;1.60;;
54919;SDS011;63804;53.120;8.764;2023-02-28T17:12:56;5.70;;;2.13;;
54919;SDS011;63804;53.120;8.764;2023-02-28T17:15:21;5.43;;;2.00;;
54919;SDS011;63804;53.120;8.764;2023-02-28T17:17:47;4.53;;;1.83;;
54919;SDS011;63804;53.120;8.764;2023-02-28T17:22:43;4.80;;;1.98;;
54919;SDS011;63804;53.120;8.764;2023-02-28T17:25:09;6.25;;;2.00;;
54919;SDS011;63804;53.120;8.764;2023-02-28T17:27:36;6.32;;;1.92;;
54919;SDS011;63804;53.120;8.764;2023-02-28T17:30:24;4.50;;;2.10;;